sensor_id;sensor_type;location;lat;lon;timestamp;temperature;humidity
11107;DHT22;5607;48.302;14.294;2023-10-09T00:02:27;14.70;99.90
11107;DHT22;5607;48.302;14.294;2023-10-09T00:05:15;14.70;99.90
11107;DHT22;5607;48.302;14.294;2023-10-09T00:08:09;14.70;99.90
11107;DHT22;5607;48.302;14.294;2023-10-09T00:10:58;14.70;99.90
11107;DHT22;5607;48.302;14.294;2023-10-09T00:14:01;14.70;99.90
11107;DHT22;5607;48.302;14.294;2023-10-09T00:16:51;14.70;99.90
11107;DHT22;5607;48.302;14.294;2023-10-09T00:19:58;14.70;99.90
11107;DHT22;5607;48.302;14.294;2023-10-09T00:22:47;14.60;99.90
11107;DHT22;5607;48.302;14.294;2023-10-09T00:25:49;14.60;99.90
11107;DHT22;5607;48.302;14.294;2023-10-09T00:28:55;14.70;99.90
11107;DHT22;5607;48.302;14.294;2023-10-09T00:31:42;14.80;99.90
11107;DHT22;5607;48.302;14.294;2023-10-09T00:34:36;14.70;99.90
11107;DHT22;5607;48.302;14.294;2023-10-09T00:37:25;14.70;99.90
11107;DHT22;5607;48.302;14.294;2023-10-09T00:40:14;14.70;99.90
11107;DHT22;5607;48.302;14.294;2023-10-09T00:43:06;14.80;99.90
11107;DHT22;5607;48.302;14.294;2023-10-09T00:46:00;14.90;99.90
11107;DHT22;5607;48.302;14.294;2023-10-09T00:49:09;14.80;99.90
11107;DHT22;5607;48.302;14.294;2023-10-09T00:51:56;14.80;99.90
11107;DHT22;5607;48.302;14.294;2023-10-09T00:54:43;14.70;99.90
11107;DHT22;5607;48.302;14.294;2023-10-09T00:57:30;14.70;99.90
11107;DHT22;5607;48.302;14.294;2023-10-09T01:00:18;14.70;99.90
11107;DHT22;5607;48.302;14.294;2023-10-09T01:03:23;14.60;99.90
11107;DHT22;5607;48.302;14.294;2023-10-09T01:06:10;14.60;99.90
11107;DHT22;5607;48.302;14.294;2023-10-09T01:08:57;14.60;99.90
11107;DHT22;5607;48.302;14.294;2023-10-09T01:11:55;14.60;99.90
11107;DHT22;5607;48.302;14.294;2023-10-09T01:14:47;14.70;99.90
11107;DHT22;5607;48.302;14.294;2023-10-09T01:17:41;14.70;99.90
11107;DHT22;5607;48.302;14.294;2023-10-09T01:20:31;14.70;99.90
11107;DHT22;5607;48.302;14.294;2023-10-09T01:23:22;14.70;99.90
11107;DHT22;5607;48.302;14.294;2023-10-09T01:26:09;14.70;99.90
11107;DHT22;5607;48.302;14.294;2023-10-09T01:28:56;14.70;99.90
11107;DHT22;5607;48.302;14.294;2023-10-09T01:31:49;14.70;99.90
11107;DHT22;5607;48.302;14.294;2023-10-09T01:34:42;14.60;99.90
11107;DHT22;5607;48.302;14.294;2023-10-09T01:37:29;14.60;99.90
11107;DHT22;5607;48.302;14.294;2023-10-09T01:40:15;14.60;99.90
11107;DHT22;5607;48.302;14.294;2023-10-09T01:43:22;14.70;99.90
11107;DHT22;5607;48.302;14.294;2023-10-09T01:46:09;14.70;99.90
11107;DHT22;5607;48.302;14.294;2023-10-09T01:48:56;14.70;99.90
11107;DHT22;5607;48.302;14.294;2023-10-09T01:51:45;14.70;99.90
11107;DHT22;5607;48.302;14.294;2023-10-09T01:54:31;14.70;99.90
11107;DHT22;5607;48.302;14.294;2023-10-09T01:57:22;14.60;99.90
11107;DHT22;5607;48.302;14.294;2023-10-09T02:00:09;14.60;99.90
11107;DHT22;5607;48.302;14.294;2023-10-09T02:02:56;14.50;99.90
11107;DHT22;5607;48.302;14.294;2023-10-09T02:05:42;14.50;99.90
11107;DHT22;5607;48.302;14.294;2023-10-09T02:08:28;14.50;99.90
11107;DHT22;5607;48.302;14.294;2023-10-09T02:11:17;14.40;99.90
11107;DHT22;5607;48.302;14.294;2023-10-09T02:14:21;14.40;99.90
11107;DHT22;5607;48.302;14.294;2023-10-09T02:17:10;14.40;99.90
11107;DHT22;5607;48.302;14.294;2023-10-09T02:20:03;14.30;99.90
11107;DHT22;5607;48.302;14.294;2023-10-09T02:23:04;14.40;99.90
11107;DHT22;5607;48.302;14.294;2023-10-09T02:25:59;14.30;99.90
11107;DHT22;5607;48.302;14.294;2023-10-09T02:28:52;14.30;99.90
11107;DHT22;5607;48.302;14.294;2023-10-09T02:31:44;14.30;99.90
11107;DHT22;5607;48.302;14.294;2023-10-09T02:34:33;14.30;99.90
11107;DHT22;5607;48.302;14.294;2023-10-09T02:37:24;14.20;99.90
11107;DHT22;5607;48.302;14.294;2023-10-09T02:40:11;14.10;99.90
11107;DHT22;5607;48.302;14.294;2023-10-09T02:43:01;14.20;99.90
11107;DHT22;5607;48.302;14.294;2023-10-09T02:45:48;14.10;99.90
11107;DHT22;5607;48.302;14.294;2023-10-09T02:48:37;14.10;99.90
11107;DHT22;5607;48.302;14.294;2023-10-09T02:51:28;14.10;99.90
11107;DHT22;5607;48.302;14.294;2023-10-09T02:54:14;14.10;99.90
11107;DHT22;5607;48.302;14.294;2023-10-09T02:57:04;14.10;99.90
11107;DHT22;5607;48.302;14.294;2023-10-09T02:59:53;14.10;99.90
11107;DHT22;5607;48.302;14.294;2023-10-09T03:02:39;14.20;99.90
11107;DHT22;5607;48.302;14.294;2023-10-09T03:05:27;14.10;99.90
11107;DHT22;5607;48.302;14.294;2023-10-09T03:08:14;14.10;99.90
11107;DHT22;5607;48.302;14.294;2023-10-09T03:11:02;14.10;99.90
11107;DHT22;5607;48.302;14.294;2023-10-09T03:13:52;14.00;99.90
11107;DHT22;5607;48.302;14.294;2023-10-09T03:16:38;14.10;99.90
11107;DHT22;5607;48.302;14.294;2023-10-09T03:19:25;14.10;99.90
11107;DHT22;5607;48.302;14.294;2023-10-09T03:22:12;14.00;99.90
11107;DHT22;5607;48.302;14.294;2023-10-09T03:24:58;14.00;99.90
11107;DHT22;5607;48.302;14.294;2023-10-09T03:27:45;14.00;99.90
11107;DHT22;5607;48.302;14.294;2023-10-09T03:30:32;14.10;99.90
11107;DHT22;5607;48.302;14.294;2023-10-09T03:33:18;14.10;99.90
11107;DHT22;5607;48.302;14.294;2023-10-09T03:36:05;14.00;99.90
11107;DHT22;5607;48.302;14.294;2023-10-09T03:38:55;14.00;99.90
11107;DHT22;5607;48.302;14.294;2023-10-09T03:41:44;14.00;99.90
11107;DHT22;5607;48.302;14.294;2023-10-09T03:44:34;13.90;99.90
11107;DHT22;5607;48.302;14.294;2023-10-09T03:47:24;13.90;99.90
11107;DHT22;5607;48.302;14.294;2023-10-09T03:50:13;13.90;99.90
11107;DHT22;5607;48.302;14.294;2023-10-09T03:53:21;13.90;99.90
11107;DHT22;5607;48.302;14.294;2023-10-09T03:56:08;13.90;99.90
11107;DHT22;5607;48.302;14.294;2023-10-09T03:59:02;13.90;99.90
11107;DHT22;5607;48.302;14.294;2023-10-09T04:01:50;14.00;99.90
11107;DHT22;5607;48.302;14.294;2023-10-09T04:04:39;13.90;99.90
11107;DHT22;5607;48.302;14.294;2023-10-09T04:07:25;14.00;99.90
11107;DHT22;5607;48.302;14.294;2023-10-09T04:10:12;14.10;99.90
11107;DHT22;5607;48.302;14.294;2023-10-09T04:13:17;14.00;99.90
11107;DHT22;5607;48.302;14.294;2023-10-09T04:16:04;14.00;99.90
11107;DHT22;5607;48.302;14.294;2023-10-09T04:18:57;14.00;99.90
11107;DHT22;5607;48.302;14.294;2023-10-09T04:21:43;13.90;99.90
11107;DHT22;5607;48.302;14.294;2023-10-09T04:24:29;13.90;99.90
11107;DHT22;5607;48.302;14.294;2023-10-09T04:27:27;13.90;99.90
11107;DHT22;5607;48.302;14.294;2023-10-09T04:30:23;13.90;99.90
11107;DHT22;5607;48.302;14.294;2023-10-09T04:33:12;13.90;99.90
11107;DHT22;5607;48.302;14.294;2023-10-09T04:36:14;13.90;99.90
11107;DHT22;5607;48.302;14.294;2023-10-09T04:39:12;13.80;99.90
11107;DHT22;5607;48.302;14.294;2023-10-09T04:41:58;13.80;99.90
11107;DHT22;5607;48.302;14.294;2023-10-09T04:45:04;13.80;99.90
11107;DHT22;5607;48.302;14.294;2023-10-09T04:47:50;13.80;99.90
11107;DHT22;5607;48.302;14.294;2023-10-09T04:50:52;13.70;99.90
11107;DHT22;5607;48.302;14.294;2023-10-09T04:54:04;13.80;99.90
11107;DHT22;5607;48.302;14.294;2023-10-09T04:56:59;13.80;99.90
11107;DHT22;5607;48.302;14.294;2023-10-09T04:59:46;13.70;99.90
11107;DHT22;5607;48.302;14.294;2023-10-09T05:02:34;13.60;99.90
11107;DHT22;5607;48.302;14.294;2023-10-09T05:05:23;13.60;99.90
11107;DHT22;5607;48.302;14.294;2023-10-09T05:08:27;13.50;99.90
11107;DHT22;5607;48.302;14.294;2023-10-09T05:11:14;13.40;99.90
11107;DHT22;5607;48.302;14.294;2023-10-09T05:14:19;13.40;99.90
11107;DHT22;5607;48.302;14.294;2023-10-09T05:17:13;13.40;99.90
11107;DHT22;5607;48.302;14.294;2023-10-09T05:20:02;13.40;99.90
11107;DHT22;5607;48.302;14.294;2023-10-09T05:23:06;13.50;99.90
11107;DHT22;5607;48.302;14.294;2023-10-09T05:26:15;13.50;99.90
11107;DHT22;5607;48.302;14.294;2023-10-09T05:29:20;13.40;99.90
11107;DHT22;5607;48.302;14.294;2023-10-09T05:32:19;13.50;99.90
11107;DHT22;5607;48.302;14.294;2023-10-09T05:35:15;13.60;99.90
11107;DHT22;5607;48.302;14.294;2023-10-09T05:38:02;13.70;99.90
11107;DHT22;5607;48.302;14.294;2023-10-09T05:41:01;13.70;99.90
11107;DHT22;5607;48.302;14.294;2023-10-09T05:44:07;13.80;99.90
11107;DHT22;5607;48.302;14.294;2023-10-09T05:47:12;13.80;99.90
11107;DHT22;5607;48.302;14.294;2023-10-09T05:50:28;13.80;99.90
11107;DHT22;5607;48.302;14.294;2023-10-09T05:53:14;13.80;99.90
11107;DHT22;5607;48.302;14.294;2023-10-09T05:56:21;13.80;99.90
11107;DHT22;5607;48.302;14.294;2023-10-09T05:59:25;13.80;99.90
11107;DHT22;5607;48.302;14.294;2023-10-09T06:06:03;13.80;99.90
11107;DHT22;5607;48.302;14.294;2023-10-09T06:08:50;13.70;99.90
11107;DHT22;5607;48.302;14.294;2023-10-09T06:11:56;13.70;99.90
11107;DHT22;5607;48.302;14.294;2023-10-09T06:15:03;13.70;99.90
11107;DHT22;5607;48.302;14.294;2023-10-09T06:18:08;13.80;99.90
11107;DHT22;5607;48.302;14.294;2023-10-09T06:21:12;13.70;99.90
11107;DHT22;5607;48.302;14.294;2023-10-09T06:24:16;13.90;99.90
11107;DHT22;5607;48.302;14.294;2023-10-09T06:27:05;14.00;99.90
11107;DHT22;5607;48.302;14.294;2023-10-09T06:29:51;13.90;99.90
11107;DHT22;5607;48.302;14.294;2023-10-09T06:32:37;13.90;99.90
11107;DHT22;5607;48.302;14.294;2023-10-09T06:35:24;13.90;99.90
11107;DHT22;5607;48.302;14.294;2023-10-09T06:38:19;14.00;99.90
11107;DHT22;5607;48.302;14.294;2023-10-09T06:41:09;14.20;99.90
11107;DHT22;5607;48.302;14.294;2023-10-09T06:44:19;14.30;99.90
11107;DHT22;5607;48.302;14.294;2023-10-09T06:47:25;14.40;99.90
11107;DHT22;5607;48.302;14.294;2023-10-09T06:50:11;14.70;99.90
11107;DHT22;5607;48.302;14.294;2023-10-09T06:53:06;14.70;99.90
11107;DHT22;5607;48.302;14.294;2023-10-09T06:55:52;14.80;99.90
11107;DHT22;5607;48.302;14.294;2023-10-09T06:58:47;14.70;99.90
11107;DHT22;5607;48.302;14.294;2023-10-09T07:01:34;14.70;99.90
11107;DHT22;5607;48.302;14.294;2023-10-09T07:04:30;14.80;99.90
11107;DHT22;5607;48.302;14.294;2023-10-09T07:07:16;14.80;99.90
11107;DHT22;5607;48.302;14.294;2023-10-09T07:10:07;14.90;99.90
11107;DHT22;5607;48.302;14.294;2023-10-09T07:13:11;15.00;99.90
11107;DHT22;5607;48.302;14.294;2023-10-09T07:15:57;15.00;99.90
11107;DHT22;5607;48.302;14.294;2023-10-09T07:19:02;15.20;99.90
11107;DHT22;5607;48.302;14.294;2023-10-09T07:21:55;15.20;99.90
11107;DHT22;5607;48.302;14.294;2023-10-09T07:24:41;15.20;99.90
11107;DHT22;5607;48.302;14.294;2023-10-09T07:27:35;15.30;99.90
11107;DHT22;5607;48.302;14.294;2023-10-09T07:30:31;15.60;99.90
11107;DHT22;5607;48.302;14.294;2023-10-09T07:33:18;15.80;99.90
11107;DHT22;5607;48.302;14.294;2023-10-09T07:36:04;15.80;99.90
11107;DHT22;5607;48.302;14.294;2023-10-09T07:38:54;15.50;99.90
11107;DHT22;5607;48.302;14.294;2023-10-09T07:41:41;15.40;99.90
11107;DHT22;5607;48.302;14.294;2023-10-09T07:44:48;15.40;99.90
11107;DHT22;5607;48.302;14.294;2023-10-09T07:47:41;15.40;99.90
11107;DHT22;5607;48.302;14.294;2023-10-09T07:51:00;15.50;99.90
11107;DHT22;5607;48.302;14.294;2023-10-09T07:53:51;15.50;99.90
11107;DHT22;5607;48.302;14.294;2023-10-09T07:56:58;15.50;99.90
11107;DHT22;5607;48.302;14.294;2023-10-09T08:00:02;15.80;99.90
11107;DHT22;5607;48.302;14.294;2023-10-09T08:02:57;16.10;99.90
11107;DHT22;5607;48.302;14.294;2023-10-09T08:05:47;16.20;99.90
11107;DHT22;5607;48.302;14.294;2023-10-09T08:08:34;16.20;99.90
11107;DHT22;5607;48.302;14.294;2023-10-09T08:11:20;16.10;99.90
11107;DHT22;5607;48.302;14.294;2023-10-09T08:14:25;15.80;99.90
11107;DHT22;5607;48.302;14.294;2023-10-09T08:17:19;15.70;99.90
11107;DHT22;5607;48.302;14.294;2023-10-09T08:20:11;15.90;99.90
11107;DHT22;5607;48.302;14.294;2023-10-09T08:22:57;16.10;99.90
11107;DHT22;5607;48.302;14.294;2023-10-09T08:25:44;16.40;99.90
11107;DHT22;5607;48.302;14.294;2023-10-09T08:28:43;16.50;99.90
11107;DHT22;5607;48.302;14.294;2023-10-09T08:31:30;16.70;99.90
11107;DHT22;5607;48.302;14.294;2023-10-09T08:34:31;16.80;99.90
11107;DHT22;5607;48.302;14.294;2023-10-09T08:37:34;16.80;99.90
11107;DHT22;5607;48.302;14.294;2023-10-09T08:40:20;16.90;99.90
11107;DHT22;5607;48.302;14.294;2023-10-09T08:43:13;17.10;99.90
11107;DHT22;5607;48.302;14.294;2023-10-09T08:46:00;17.20;99.90
11107;DHT22;5607;48.302;14.294;2023-10-09T08:48:47;17.10;99.90
11107;DHT22;5607;48.302;14.294;2023-10-09T08:51:33;17.20;99.90
11107;DHT22;5607;48.302;14.294;2023-10-09T08:54:21;17.30;99.90
11107;DHT22;5607;48.302;14.294;2023-10-09T08:57:07;17.30;99.90
11107;DHT22;5607;48.302;14.294;2023-10-09T08:59:55;17.40;99.90
11107;DHT22;5607;48.302;14.294;2023-10-09T09:02:43;17.60;99.90
11107;DHT22;5607;48.302;14.294;2023-10-09T09:05:33;17.80;99.90
11107;DHT22;5607;48.302;14.294;2023-10-09T09:08:25;17.90;99.90
11107;DHT22;5607;48.302;14.294;2023-10-09T09:11:15;18.10;99.90
11107;DHT22;5607;48.302;14.294;2023-10-09T09:14:02;18.30;99.90
11107;DHT22;5607;48.302;14.294;2023-10-09T09:17:07;18.40;99.90
11107;DHT22;5607;48.302;14.294;2023-10-09T09:19:57;18.20;99.90
11107;DHT22;5607;48.302;14.294;2023-10-09T09:22:53;18.20;99.90
11107;DHT22;5607;48.302;14.294;2023-10-09T09:25:43;18.10;99.90
11107;DHT22;5607;48.302;14.294;2023-10-09T09:28:33;17.90;99.90
11107;DHT22;5607;48.302;14.294;2023-10-09T09:31:25;18.00;99.90
11107;DHT22;5607;48.302;14.294;2023-10-09T09:34:11;18.20;99.90
11107;DHT22;5607;48.302;14.294;2023-10-09T09:37:03;18.20;99.90
11107;DHT22;5607;48.302;14.294;2023-10-09T09:39:50;18.20;99.90
11107;DHT22;5607;48.302;14.294;2023-10-09T09:42:38;18.30;99.90
11107;DHT22;5607;48.302;14.294;2023-10-09T09:45:37;18.50;99.90
11107;DHT22;5607;48.302;14.294;2023-10-09T09:48:23;18.50;99.90
11107;DHT22;5607;48.302;14.294;2023-10-09T09:51:11;18.50;99.90
11107;DHT22;5607;48.302;14.294;2023-10-09T09:54:01;18.30;99.90
11107;DHT22;5607;48.302;14.294;2023-10-09T09:56:48;18.40;99.90
11107;DHT22;5607;48.302;14.294;2023-10-09T09:59:39;18.00;99.90
11107;DHT22;5607;48.302;14.294;2023-10-09T10:02:36;17.80;99.90
11107;DHT22;5607;48.302;14.294;2023-10-09T10:05:24;17.60;99.90
11107;DHT22;5607;48.302;14.294;2023-10-09T10:08:19;17.60;99.90
11107;DHT22;5607;48.302;14.294;2023-10-09T10:11:06;17.60;99.90
11107;DHT22;5607;48.302;14.294;2023-10-09T10:17:00;17.60;99.90
11107;DHT22;5607;48.302;14.294;2023-10-09T10:20:06;17.50;99.90
11107;DHT22;5607;48.302;14.294;2023-10-09T10:23:16;17.70;99.90
11107;DHT22;5607;48.302;14.294;2023-10-09T10:26:18;18.20;99.90
11107;DHT22;5607;48.302;14.294;2023-10-09T10:29:15;18.40;99.90
11107;DHT22;5607;48.302;14.294;2023-10-09T10:32:08;18.90;99.90
11107;DHT22;5607;48.302;14.294;2023-10-09T10:34:54;19.20;99.90
11107;DHT22;5607;48.302;14.294;2023-10-09T10:37:45;19.20;99.90
11107;DHT22;5607;48.302;14.294;2023-10-09T10:40:37;18.90;99.90
11107;DHT22;5607;48.302;14.294;2023-10-09T10:43:32;19.10;99.90
11107;DHT22;5607;48.302;14.294;2023-10-09T10:46:21;19.30;99.90
11107;DHT22;5607;48.302;14.294;2023-10-09T10:49:10;19.60;99.90
11107;DHT22;5607;48.302;14.294;2023-10-09T10:51:59;19.50;99.90
11107;DHT22;5607;48.302;14.294;2023-10-09T10:55:08;19.50;99.90
11107;DHT22;5607;48.302;14.294;2023-10-09T10:58:14;19.70;99.90
11107;DHT22;5607;48.302;14.294;2023-10-09T11:01:20;19.70;99.90
11107;DHT22;5607;48.302;14.294;2023-10-09T11:04:11;20.10;99.90
11107;DHT22;5607;48.302;14.294;2023-10-09T11:06:58;20.20;99.90
11107;DHT22;5607;48.302;14.294;2023-10-09T11:10:10;20.10;99.90
11107;DHT22;5607;48.302;14.294;2023-10-09T11:13:03;19.90;99.90
11107;DHT22;5607;48.302;14.294;2023-10-09T11:15:54;20.00;99.90
11107;DHT22;5607;48.302;14.294;2023-10-09T11:19:04;20.10;99.90
11107;DHT22;5607;48.302;14.294;2023-10-09T11:22:01;20.20;99.90
11107;DHT22;5607;48.302;14.294;2023-10-09T11:24:53;20.10;99.90
11107;DHT22;5607;48.302;14.294;2023-10-09T11:27:58;20.10;99.90
11107;DHT22;5607;48.302;14.294;2023-10-09T11:31:11;20.20;99.90
11107;DHT22;5607;48.302;14.294;2023-10-09T11:40:32;20.50;99.90
11107;DHT22;5607;48.302;14.294;2023-10-09T11:43:52;20.30;99.90
11107;DHT22;5607;48.302;14.294;2023-10-09T11:46:38;20.20;99.90
11107;DHT22;5607;48.302;14.294;2023-10-09T11:49:34;20.10;99.90
11107;DHT22;5607;48.302;14.294;2023-10-09T11:52:30;20.20;99.90
11107;DHT22;5607;48.302;14.294;2023-10-09T11:55:26;20.40;99.90
11107;DHT22;5607;48.302;14.294;2023-10-09T11:58:21;20.50;99.90
11107;DHT22;5607;48.302;14.294;2023-10-09T12:01:13;20.40;99.90
11107;DHT22;5607;48.302;14.294;2023-10-09T12:04:06;20.50;99.90
11107;DHT22;5607;48.302;14.294;2023-10-09T12:06:55;20.50;99.90
11107;DHT22;5607;48.302;14.294;2023-10-09T12:09:52;20.40;99.90
11107;DHT22;5607;48.302;14.294;2023-10-09T12:12:42;20.20;99.90
11107;DHT22;5607;48.302;14.294;2023-10-09T12:15:32;20.20;99.90
11107;DHT22;5607;48.302;14.294;2023-10-09T12:18:23;20.00;99.90
11107;DHT22;5607;48.302;14.294;2023-10-09T12:21:10;20.00;99.90
11107;DHT22;5607;48.302;14.294;2023-10-09T12:24:01;20.00;99.90
11107;DHT22;5607;48.302;14.294;2023-10-09T12:26:48;20.10;99.90
11107;DHT22;5607;48.302;14.294;2023-10-09T12:29:39;19.90;99.90
11107;DHT22;5607;48.302;14.294;2023-10-09T12:32:30;19.90;99.90
11107;DHT22;5607;48.302;14.294;2023-10-09T12:35:21;19.80;99.90
11107;DHT22;5607;48.302;14.294;2023-10-09T12:38:07;19.70;99.90
11107;DHT22;5607;48.302;14.294;2023-10-09T12:41:05;19.70;99.90
11107;DHT22;5607;48.302;14.294;2023-10-09T12:44:06;19.60;99.90
11107;DHT22;5607;48.302;14.294;2023-10-09T12:46:58;19.70;99.90
11107;DHT22;5607;48.302;14.294;2023-10-09T12:49:49;19.60;99.90
11107;DHT22;5607;48.302;14.294;2023-10-09T12:52:35;19.60;99.90
11107;DHT22;5607;48.302;14.294;2023-10-09T12:55:23;19.30;99.90
11107;DHT22;5607;48.302;14.294;2023-10-09T12:58:17;19.20;99.90
11107;DHT22;5607;48.302;14.294;2023-10-09T13:01:04;19.20;99.90
11107;DHT22;5607;48.302;14.294;2023-10-09T13:03:58;19.40;99.90
11107;DHT22;5607;48.302;14.294;2023-10-09T13:06:45;19.20;99.90
11107;DHT22;5607;48.302;14.294;2023-10-09T13:09:32;19.20;99.90
11107;DHT22;5607;48.302;14.294;2023-10-09T13:12:27;19.00;99.90
11107;DHT22;5607;48.302;14.294;2023-10-09T13:15:14;19.10;99.90
11107;DHT22;5607;48.302;14.294;2023-10-09T13:18:00;19.10;99.90
11107;DHT22;5607;48.302;14.294;2023-10-09T13:20:46;18.90;99.90
11107;DHT22;5607;48.302;14.294;2023-10-09T13:23:33;18.90;99.90
11107;DHT22;5607;48.302;14.294;2023-10-09T13:26:26;18.90;99.90
11107;DHT22;5607;48.302;14.294;2023-10-09T13:29:21;19.00;99.90
11107;DHT22;5607;48.302;14.294;2023-10-09T13:32:10;18.90;99.90
11107;DHT22;5607;48.302;14.294;2023-10-09T13:35:01;18.80;99.90
11107;DHT22;5607;48.302;14.294;2023-10-09T13:37:50;18.80;99.90
11107;DHT22;5607;48.302;14.294;2023-10-09T13:40:42;18.60;99.90
11107;DHT22;5607;48.302;14.294;2023-10-09T13:43:28;18.60;99.90
11107;DHT22;5607;48.302;14.294;2023-10-09T13:46:14;18.80;99.90
11107;DHT22;5607;48.302;14.294;2023-10-09T13:49:03;19.00;99.90
11107;DHT22;5607;48.302;14.294;2023-10-09T13:51:49;19.10;99.90
11107;DHT22;5607;48.302;14.294;2023-10-09T13:54:36;19.00;99.90
11107;DHT22;5607;48.302;14.294;2023-10-09T13:57:22;18.80;99.90
11107;DHT22;5607;48.302;14.294;2023-10-09T14:00:17;18.90;99.90
11107;DHT22;5607;48.302;14.294;2023-10-09T14:03:18;18.90;99.90
11107;DHT22;5607;48.302;14.294;2023-10-09T14:06:05;18.80;99.90
11107;DHT22;5607;48.302;14.294;2023-10-09T14:09:02;18.70;99.90
11107;DHT22;5607;48.302;14.294;2023-10-09T14:11:55;18.80;99.90
11107;DHT22;5607;48.302;14.294;2023-10-09T14:14:52;18.70;99.90
11107;DHT22;5607;48.302;14.294;2023-10-09T14:17:39;18.70;99.90
11107;DHT22;5607;48.302;14.294;2023-10-09T14:20:28;18.80;99.90
11107;DHT22;5607;48.302;14.294;2023-10-09T14:23:17;18.80;99.90
11107;DHT22;5607;48.302;14.294;2023-10-09T14:26:06;18.80;99.90
11107;DHT22;5607;48.302;14.294;2023-10-09T14:28:53;19.00;99.90
11107;DHT22;5607;48.302;14.294;2023-10-09T14:31:43;19.00;99.90
11107;DHT22;5607;48.302;14.294;2023-10-09T14:34:29;18.90;99.90
11107;DHT22;5607;48.302;14.294;2023-10-09T14:37:21;18.70;99.90
11107;DHT22;5607;48.302;14.294;2023-10-09T14:40:09;18.60;99.90
11107;DHT22;5607;48.302;14.294;2023-10-09T14:42:58;18.50;99.90
11107;DHT22;5607;48.302;14.294;2023-10-09T14:45:48;18.50;99.90
11107;DHT22;5607;48.302;14.294;2023-10-09T14:48:34;18.50;99.90
11107;DHT22;5607;48.302;14.294;2023-10-09T14:51:23;18.50;99.90
11107;DHT22;5607;48.302;14.294;2023-10-09T14:54:13;18.60;99.90
11107;DHT22;5607;48.302;14.294;2023-10-09T14:57:04;18.60;99.90
11107;DHT22;5607;48.302;14.294;2023-10-09T14:59:53;18.70;99.90
11107;DHT22;5607;48.302;14.294;2023-10-09T15:02:39;18.70;99.90
11107;DHT22;5607;48.302;14.294;2023-10-09T15:05:25;18.80;99.90
11107;DHT22;5607;48.302;14.294;2023-10-09T15:08:12;18.70;99.90
11107;DHT22;5607;48.302;14.294;2023-10-09T15:10:58;18.70;99.90
11107;DHT22;5607;48.302;14.294;2023-10-09T15:13:45;18.90;99.90
11107;DHT22;5607;48.302;14.294;2023-10-09T15:16:31;18.80;99.90
11107;DHT22;5607;48.302;14.294;2023-10-09T15:19:17;18.90;99.90
11107;DHT22;5607;48.302;14.294;2023-10-09T15:22:04;19.00;99.90
11107;DHT22;5607;48.302;14.294;2023-10-09T15:24:55;19.00;99.90
11107;DHT22;5607;48.302;14.294;2023-10-09T15:27:42;18.90;99.90
11107;DHT22;5607;48.302;14.294;2023-10-09T15:30:29;18.80;99.90
11107;DHT22;5607;48.302;14.294;2023-10-09T15:33:17;18.70;99.90
11107;DHT22;5607;48.302;14.294;2023-10-09T15:36:11;18.60;99.90
11107;DHT22;5607;48.302;14.294;2023-10-09T15:38:57;18.50;99.90
11107;DHT22;5607;48.302;14.294;2023-10-09T15:41:46;18.40;99.90
11107;DHT22;5607;48.302;14.294;2023-10-09T15:44:32;18.50;99.90
11107;DHT22;5607;48.302;14.294;2023-10-09T15:47:25;18.40;99.90
11107;DHT22;5607;48.302;14.294;2023-10-09T15:50:12;18.40;99.90
11107;DHT22;5607;48.302;14.294;2023-10-09T15:53:00;18.30;99.90
11107;DHT22;5607;48.302;14.294;2023-10-09T15:55:48;18.20;99.90
11107;DHT22;5607;48.302;14.294;2023-10-09T15:58:43;18.20;99.90
11107;DHT22;5607;48.302;14.294;2023-10-09T16:01:30;18.20;99.90
11107;DHT22;5607;48.302;14.294;2023-10-09T16:04:16;18.20;99.90
11107;DHT22;5607;48.302;14.294;2023-10-09T16:07:03;18.10;99.90
11107;DHT22;5607;48.302;14.294;2023-10-09T16:09:53;18.10;99.90
11107;DHT22;5607;48.302;14.294;2023-10-09T16:12:41;18.10;99.90
11107;DHT22;5607;48.302;14.294;2023-10-09T16:15:28;18.10;99.90
11107;DHT22;5607;48.302;14.294;2023-10-09T16:18:14;18.10;99.90
11107;DHT22;5607;48.302;14.294;2023-10-09T16:21:00;18.10;99.90
11107;DHT22;5607;48.302;14.294;2023-10-09T16:23:53;18.10;99.90
11107;DHT22;5607;48.302;14.294;2023-10-09T16:26:46;18.10;99.90
11107;DHT22;5607;48.302;14.294;2023-10-09T16:29:37;18.10;99.90
11107;DHT22;5607;48.302;14.294;2023-10-09T16:32:24;18.00;99.90
11107;DHT22;5607;48.302;14.294;2023-10-09T16:35:11;18.00;99.90
11107;DHT22;5607;48.302;14.294;2023-10-09T16:37:57;18.10;99.90
11107;DHT22;5607;48.302;14.294;2023-10-09T16:40:43;18.00;99.90
11107;DHT22;5607;48.302;14.294;2023-10-09T16:43:33;18.00;99.90
11107;DHT22;5607;48.302;14.294;2023-10-09T16:46:19;18.00;99.90
11107;DHT22;5607;48.302;14.294;2023-10-09T16:49:08;18.00;99.90
11107;DHT22;5607;48.302;14.294;2023-10-09T16:51:57;18.00;99.90
11107;DHT22;5607;48.302;14.294;2023-10-09T16:54:45;18.00;99.90
11107;DHT22;5607;48.302;14.294;2023-10-09T16:57:31;18.00;99.90
11107;DHT22;5607;48.302;14.294;2023-10-09T17:00:20;18.00;99.90
11107;DHT22;5607;48.302;14.294;2023-10-09T17:03:20;18.00;99.90
11107;DHT22;5607;48.302;14.294;2023-10-09T17:06:10;18.10;99.90
11107;DHT22;5607;48.302;14.294;2023-10-09T17:08:56;18.10;99.90
11107;DHT22;5607;48.302;14.294;2023-10-09T17:11:43;18.10;99.90
11107;DHT22;5607;48.302;14.294;2023-10-09T17:14:29;18.10;99.90
11107;DHT22;5607;48.302;14.294;2023-10-09T17:17:16;18.20;99.90
11107;DHT22;5607;48.302;14.294;2023-10-09T17:20:06;18.20;99.90
11107;DHT22;5607;48.302;14.294;2023-10-09T17:22:56;18.10;99.90
11107;DHT22;5607;48.302;14.294;2023-10-09T17:25:49;18.10;99.90
11107;DHT22;5607;48.302;14.294;2023-10-09T17:28:43;18.20;99.90
11107;DHT22;5607;48.302;14.294;2023-10-09T17:31:32;18.20;99.90
11107;DHT22;5607;48.302;14.294;2023-10-09T17:34:20;18.20;99.90
11107;DHT22;5607;48.302;14.294;2023-10-09T17:37:09;18.20;99.90
11107;DHT22;5607;48.302;14.294;2023-10-09T17:39:55;18.30;99.90
11107;DHT22;5607;48.302;14.294;2023-10-09T17:42:41;18.30;99.90
11107;DHT22;5607;48.302;14.294;2023-10-09T17:45:27;18.30;99.90
11107;DHT22;5607;48.302;14.294;2023-10-09T17:48:13;18.30;99.90
11107;DHT22;5607;48.302;14.294;2023-10-09T17:51:03;18.30;99.90
11107;DHT22;5607;48.302;14.294;2023-10-09T17:53:55;18.20;99.90
11107;DHT22;5607;48.302;14.294;2023-10-09T17:56:41;18.10;99.90
11107;DHT22;5607;48.302;14.294;2023-10-09T17:59:27;18.10;99.90
11107;DHT22;5607;48.302;14.294;2023-10-09T18:02:17;18.00;99.90
11107;DHT22;5607;48.302;14.294;2023-10-09T18:05:04;18.00;99.90
11107;DHT22;5607;48.302;14.294;2023-10-09T18:07:50;18.00;99.90
11107;DHT22;5607;48.302;14.294;2023-10-09T18:10:36;17.90;99.90
11107;DHT22;5607;48.302;14.294;2023-10-09T18:13:26;17.90;99.90
11107;DHT22;5607;48.302;14.294;2023-10-09T18:16:13;17.90;99.90
11107;DHT22;5607;48.302;14.294;2023-10-09T18:19:03;17.90;99.90